• Join FlightAware (Why Join?)
  • Login
  • US Flag 
12:06AM EDT


 

Airport Tracker/Info


-or-


 

Live Flight TrackerFlight Track Log ✈ N712WB ✈ 05-Oct-2013 ✈ KHDC - KMRY

Flight Track Log - Related Links

Times and Time Zones

All times are in EDT time to prevent confusion due to time zone crossing. See the N712WB flight status page for this flight to view local times or setup timezone preferences in your user account.

Time Position Orientation Groundspeed Altitude Reporting Facility
EDT Latitude Longitude Course Direction KTS MPH feet Rate Location/Type
12:07PM 30.5047 -90.3992 187° South 288 331 900  Level Houston Center
12:07PM 30.4750 -90.4033 187° South 246 283 2,300 2,100 Climbing Houston Center
12:08PM 30.4722 -90.4803 268° West 246 283 4,500 2,220 Climbing Houston Center
12:09PM 30.4928 -90.5731 284° West 274 315 7,000 2,400 Climbing Houston Center
12:10PM 30.5067 -90.6708 279° West 305 351 9,500 1,800 Climbing Houston Center
12:11PM 30.5261 -90.7736 282° West 335 386 10,800 1,440 Climbing Houston Center
12:12PM 30.5461 -90.8872 282° West 361 415 12,500 1,860 Climbing Houston Center
12:13PM 30.5703 -91.0239 282° West 363 418 14,700 1,920 Climbing Houston Center
12:14PM 30.5897 -91.1372 281° West 360 414 16,500 1,500 Climbing Houston Center
12:15PM 30.6086 -91.2519 281° West 364 419 17,800 1,260 Climbing Houston Center
12:16PM 30.6297 -91.3694 282° West 373 429 19,100 1,200 Climbing Houston Center
12:17PM 30.6503 -91.4942 281° West 386 444 20,400 1,200 Climbing Houston Center
12:18PM 30.6722 -91.6175 282° West 391 450 21,600 1,080 Climbing Houston Center
12:20PM 30.6936 -91.7433 281° West 399 459 22,700 1,140 Climbing Houston Center
12:21PM 30.7150 -91.8717 281° West 406 467 24,000 1,260 Climbing Houston Center
12:22PM 30.7539 -92.0233 287° West 408 470 25,400 1,260 Climbing Houston Center
12:23PM 30.7950 -92.1492 291° West 416 479 26,600 1,020 Climbing Houston Center
12:24PM 30.8350 -92.2772 290° West 421 484 27,600 1,020 Climbing Houston Center
12:25PM 30.8764 -92.4064 291° West 422 486 28,800 1,140 Climbing Houston Center
12:26PM 30.9172 -92.5383 290° West 429 494 30,000 1,140 Climbing Houston Center
12:27PM 30.9603 -92.6728 291° West 437 503 31,200 1,200 Climbing Houston Center
12:28PM 31.0061 -92.8200 290° West 443 510 32,500 1,080 Climbing Houston Center
12:29PM 31.0492 -92.9556 290° West 446 513 33,500 1,140 Climbing Houston Center
12:30PM 31.0919 -93.0942 290° West 453 521 34,900 1,200 Climbing Houston Center
12:31PM 31.1325 -93.2289 289° West 446 513 36,000 480 Climbing Houston Center
12:32PM 31.1756 -93.3686 290° West 458 527 36,000  Level Houston Center
12:33PM 31.2300 -93.5453 290° West 483 556 36,000  Level Houston Center
12:34PM 31.2742 -93.6875 290° West 491 565 36,000  Level Houston Center
12:35PM 31.3181 -93.8381 289° West 491 565 36,000  Level Houston Center
12:36PM 31.3647 -93.9886 290° West 492 566 36,000 420 Level Houston Center
12:37PM 31.4169 -94.1681 289° West 490 564 36,900 900 Climbing Houston Center
12:38PM 31.4606 -94.3131 289° West 480 552 37,900 960 Climbing Houston Center
12:39PM 31.5036 -94.4567 289° West 474 545 38,900 900 Climbing Houston Center
12:40PM 31.5442 -94.5992 288° West 468 539 39,800 480 Climbing Houston Center
12:41PM 31.5869 -94.7417 289° West 468 539 40,000 60 Climbing Houston Center
12:42PM 31.6286 -94.8894 288° West 478 550 40,000  Level Houston Center
12:43PM 31.6644 -95.0142 289° West 481 554 40,000  Level Fort Worth Center
12:44PM 31.7069 -95.1644 288° West 481 554 40,000  Level Fort Worth Center
12:45PM 31.7511 -95.3147 289° West 481 554 40,000  Level Fort Worth Center
12:46PM 31.7911 -95.4606 288° West 481 554 40,000  Level Fort Worth Center
12:47PM 31.8331 -95.6089 288° West 481 554 40,000  Level Fort Worth Center
12:48PM 31.8728 -95.7597 287° West 481 554 40,000  Level Fort Worth Center
12:49PM 31.9161 -95.9033 290° West 481 554 40,000  Level Fort Worth Center
12:50PM 31.9531 -96.0225 290° West 473 544 40,000  Level Fort Worth Center
12:51PM 31.9944 -96.1936 286° West 473 544 40,000 420 Level Fort Worth Center
12:52PM 32.0356 -96.3375 289° West 473 544 40,900 900 Climbing Fort Worth Center
12:53PM 32.0742 -96.4792 288° West 467 537 41,800 900 Climbing Fort Worth Center
12:54PM 32.1106 -96.6164 287° West 457 526 42,800 600 Climbing Fort Worth Center
12:55PM 32.1469 -96.7533 287° West 447 514 43,000 60 Climbing Fort Worth Center
12:56PM 32.1850 -96.8931 288° West 442 509 43,000  Level Fort Worth Center
12:57PM 32.2211 -97.0303 287° West 442 509 43,000  Level Fort Worth Center
12:58PM 32.2611 -97.1703 289° West 442 509 43,000  Level Fort Worth Center
12:59PM 32.2989 -97.3125 287° West 447 514 43,000  Level Fort Worth Center
01:00PM 32.3344 -97.4553 286° West 447 514 43,000  Level Fort Worth Center
01:01PM 32.3739 -97.5956 288° West 447 514 43,000  Level Fort Worth Center
01:02PM 32.4111 -97.7383 287° West 447 514 43,000  Level Fort Worth Center
01:03PM 32.4464 -97.8786 287° West 452 520 43,000  Level Fort Worth Center
01:04PM 32.4811 -98.0019 288° West 452 520 43,000  Level Fort Worth Center
01:05PM 32.5181 -98.1428 287° West 447 514 43,000  Level Fort Worth Center
01:06PM 32.5506 -98.2833 285° West 447 514 43,000  Level Fort Worth Center
01:07PM 32.5558 -98.4289 273° West 447 514 43,000  Level Fort Worth Center
01:08PM 32.5628 -98.5819 273° West 435 501 43,000  Level Fort Worth Center
01:09PM 32.5717 -98.7250 274° West 435 501 43,000  Level Fort Worth Center
01:10PM 32.5786 -98.8706 273° West 440 506 43,000  Level Fort Worth Center
01:11PM 32.5872 -99.0111 274° West 440 506 43,000  Level Fort Worth Center
01:12PM 32.5978 -99.1544 275° West 440 506 43,000  Level Fort Worth Center
01:13PM 32.6250 -99.2931 283° West 440 506 43,000  Level Fort Worth Center
01:14PM 32.6625 -99.4344 288° West 440 506 43,000  Level Fort Worth Center
01:15PM 32.7000 -99.5711 288° West 440 506 43,000  Level Fort Worth Center
01:16PM 32.7372 -99.7103 288° West 440 506 43,000  Level Fort Worth Center
01:17PM 32.7739 -99.8569 287° West 451 519 43,000  Level Fort Worth Center
01:18PM 32.8089 -99.9939 287° West 456 525 43,000  Level Fort Worth Center
01:19PM 32.8475 -100.1358 288° West 456 525 43,000  Level Fort Worth Center
01:20PM 32.8819 -100.2756 286° West 449 517 43,000  Level Fort Worth Center
01:21PM 32.9164 -100.4103 287° West 438 504 43,000  Level Fort Worth Center
01:22PM 32.9528 -100.5500 287° West 438 504 43,000  Level Fort Worth Center
01:23PM 32.9847 -100.6875 286° West 438 504 43,000  Level Fort Worth Center
01:24PM 33.0206 -100.8250 287° West 443 510 43,000  Level Fort Worth Center
01:25PM 33.0564 -100.9675 287° West 443 510 43,000  Level Fort Worth Center
01:26PM 33.0900 -101.1028 287° West 437 503 43,000  Level Fort Worth Center
01:27PM 33.1256 -101.2408 287° West 443 510 43,000  Level Fort Worth Center
01:28PM 33.1608 -101.3811 287° West 443 510 43,000  Level Fort Worth Center
01:29PM 33.1917 -101.5242 284° West 443 510 43,000  Level Fort Worth Center
01:30PM 33.2247 -101.6622 286° West 443 510 43,000  Level Fort Worth Center
01:31PM 33.2572 -101.8053 285° West 443 510 43,000  Level Fort Worth Center
01:32PM 33.2900 -101.9461 286° West 443 510 43,000  Level Fort Worth Center
01:33PM 33.3208 -102.0719 286° West 443 510 43,000  Level Fort Worth Center
01:34PM 33.3586 -102.2281 286° West 448 516 43,000  Level Fort Worth Center
01:35PM 33.3894 -102.3517 287° West 441 507 43,000  Level Fort Worth Center
01:36PM 33.4269 -102.5056 286° West 441 507 43,000  Level Fort Worth Center
01:37PM 33.4572 -102.6342 286° West 441 507 43,000  Level Fort Worth Center
01:39PM 33.5219 -102.9100 286° West 439 505 43,000  Level Albuquerque Center
01:40PM 33.5539 -103.0494 285° West 438 504 43,000  Level Albuquerque Center
01:41PM 33.5856 -103.1878 285° West 435 501 43,000  Level Albuquerque Center
01:42PM 33.6181 -103.3278 286° West 437 503 43,000  Level Albuquerque Center
01:43PM 33.6489 -103.4689 285° West 437 503 43,000  Level Albuquerque Center
01:44PM 33.6814 -103.6125 285° West 443 510 43,000  Level Albuquerque Center
01:45PM 33.7217 -103.7842 286° West 450 518 43,000  Level Albuquerque Center
01:46PM 33.7556 -103.9375 285° West 445 512 43,000  Level Albuquerque Center
01:47PM 33.7872 -104.0794 285° West 443 510 43,000  Level Albuquerque Center
01:48PM 33.8175 -104.2219 284° West 442 509 43,000  Level Albuquerque Center
01:49PM 33.8506 -104.3753 285° West 443 510 43,000  Level Albuquerque Center
01:50PM 33.8817 -104.5172 285° West 441 507 43,000  Level Albuquerque Center
01:51PM 33.9147 -104.6689 285° West 439 505 43,000  Level Albuquerque Center
01:52PM 33.9444 -104.8089 284° West 436 502 43,000  Level Albuquerque Center
01:53PM 33.9767 -104.9606 284° West 436 502 43,000  Level Albuquerque Center
01:54PM 34.0067 -105.0994 285° West 432 497 43,000  Level Albuquerque Center
01:55PM 34.0347 -105.2286 285° West 435 501 43,000 240 Level Albuquerque Center
01:56PM 34.0686 -105.3931 284° West 431 496 43,500 540 Climbing Albuquerque Center
01:57PM 34.0975 -105.5308 284° West 424 488 44,200 600 Climbing Albuquerque Center
01:58PM 34.1258 -105.6700 284° West 423 487 44,800 540 Climbing Albuquerque Center
01:59PM 34.1539 -105.8033 284° West 412 474 45,400 480 Climbing Albuquerque Center
02:00PM 34.1814 -105.9386 284° West 411 473 45,900 420 Climbing Albuquerque Center
02:01PM 34.2083 -106.0744 284° West 412 474 46,300 360 Climbing Albuquerque Center
02:02PM 34.2361 -106.2108 284° West 415 478 46,700 300 Climbing Albuquerque Center
02:03PM 34.2639 -106.3550 283° West 416 479 47,000 120 Climbing Albuquerque Center
02:04PM 34.2911 -106.4919 284° West 416 479 47,000  Level Albuquerque Center
02:05PM 34.3217 -106.6444 284° West 423 487 47,000  Level Albuquerque Center
02:07PM 34.3500 -106.7861 284° West 431 496 47,000  Level Albuquerque Center
02:08PM 34.3806 -106.9386 284° West 433 498 47,000  Level Albuquerque Center
02:09PM 34.4075 -107.0819 283° West 436 502 47,000  Level Albuquerque Center
02:10PM 34.4356 -107.2317 283° West 438 504 47,000  Level Albuquerque Center
02:11PM 34.4622 -107.3767 283° West 439 505 47,000  Level Albuquerque Center
02:12PM 34.4914 -107.5236 284° West 443 510 47,000  Level Albuquerque Center
02:13PM 34.5186 -107.6703 283° West 444 511 47,000  Level Albuquerque Center
02:14PM 34.5467 -107.8161 283° West 444 511 47,000  Level Albuquerque Center
02:15PM 34.5725 -107.9611 282° West 440 506 47,000  Level Albuquerque Center
02:16PM 34.6006 -108.1078 283° West 445 512 47,000  Level Albuquerque Center
02:17PM 34.6300 -108.2714 282° West 441 507 47,000  Level Albuquerque Center
02:18PM 34.6553 -108.4119 282° West 443 510 47,000  Level Albuquerque Center
02:19PM 34.6853 -108.5717 283° West 438 504 47,000  Level Albuquerque Center
02:20PM 34.7106 -108.7103 283° West 436 502 47,000  Level Albuquerque Center
02:21PM 34.7394 -108.8747 282° West 440 506 47,000  Level Albuquerque Center
02:22PM 34.7647 -109.0158 282° West 444 511 47,000  Level Albuquerque Center
02:23PM 34.7886 -109.1564 282° West 444 511 47,000  Level Albuquerque Center
02:24PM 34.8178 -109.3256 282° West 449 517 47,000  Level Albuquerque Center
02:25PM 34.8425 -109.4675 282° West 449 517 47,000  Level Albuquerque Center
02:26PM 34.8708 -109.6356 282° West 452 520 47,000  Level Albuquerque Center
02:27PM 34.8953 -109.7792 282° West 452 520 47,000  Level Albuquerque Center
02:28PM 34.9197 -109.9236 282° West 452 520 47,000  Level Albuquerque Center
02:29PM 34.9478 -110.0908 282° West 452 520 47,000  Level Albuquerque Center
02:30PM 34.9728 -110.2367 282° West 456 525 47,000  Level Albuquerque Center
02:31PM 34.9983 -110.4031 281° West 451 519 47,000  Level Albuquerque Center
02:32PM 35.0200 -110.5436 281° West 445 512 47,000  Level Albuquerque Center
02:33PM 35.0464 -110.7111 281° West 447 514 47,000  Level Albuquerque Center
02:34PM 35.0731 -110.8528 283° West 447 514 47,000  Level Albuquerque Center
02:35PM 35.1078 -110.9928 287° West 448 516 47,000  Level Albuquerque Center
02:36PM 35.1508 -111.1625 287° West 461 531 47,000  Level Albuquerque Center
02:37PM 35.1861 -111.3081 287° West 454 522 47,000  Level Albuquerque Center
02:38PM 35.2219 -111.4536 287° West 450 518 47,000  Level Albuquerque Center
02:39PM 35.2575 -111.5989 287° West 449 517 47,000  Level Albuquerque Center
02:40PM 35.2925 -111.7444 286° West 449 517 47,000  Level Albuquerque Center
02:41PM 35.3261 -111.8886 286° West 449 517 47,000  Level Albuquerque Center
02:42PM 35.3678 -112.0642 286° West 449 517 47,000  Level Albuquerque Center
02:44PM 35.4028 -112.2089 287° West 448 516 47,000  Level Albuquerque Center
02:45PM 35.4378 -112.3550 286° West 449 517 47,000  Level Albuquerque Center
02:46PM 35.4719 -112.5017 286° West 451 519 47,000  Level Albuquerque Center
02:47PM 35.5061 -112.6461 286° West 449 517 47,000  Level Albuquerque Center
02:48PM 35.5472 -112.8192 286° West 449 517 47,000  Level Albuquerque Center
02:49PM 35.5800 -112.9619 286° West 446 513 47,000  Level Albuquerque Center
02:50PM 35.6119 -113.1056 285° West 445 512 47,000  Level Albuquerque Center
02:51PM 35.6444 -113.2489 286° West 443 510 47,000  Level Albuquerque Center
02:52PM 35.6953 -113.4797 285° West 440 506 47,000  Level Los Angeles Center
02:53PM 35.7292 -113.6347 285° West 437 503 47,000  Level Los Angeles Center
02:54PM 35.7614 -113.7800 285° West 438 504 47,000  Level Los Angeles Center
02:55PM 35.7931 -113.9236 285° West 436 502 47,000  Level Los Angeles Center
02:56PM 35.8247 -114.0678 285° West 437 503 47,000  Level Los Angeles Center
02:57PM 35.8561 -114.2128 285° West 436 502 47,000  Level Los Angeles Center
02:59PM 35.8869 -114.3569 285° West 436 502 47,000  Level Los Angeles Center
03:00PM 35.9303 -114.5589 285° West 435 501 47,000  Level Los Angeles Center
03:01PM 35.9603 -114.7036 284° West 435 501 47,000  Level Los Angeles Center
03:02PM 35.9917 -114.8467 285° West 433 498 47,000  Level Los Angeles Center
03:03PM 36.0331 -114.9858 290° West 431 496 47,000  Level Los Angeles Center
03:04PM 36.0769 -115.1247 291° West 432 497 47,000  Level Los Angeles Center
03:05PM 36.1203 -115.2644 291° West 434 499 47,000  Level Los Angeles Center
03:06PM 36.1636 -115.4042 291° West 434 499 47,000  Level Los Angeles Center
03:07PM 36.2039 -115.5447 290° West 426 490 47,000  Level Los Angeles Center
03:08PM 36.2456 -115.6964 289° West 448 516 47,000  Level Los Angeles Center
03:09PM 36.2656 -115.8875 277° West 441 507 47,000  Level Los Angeles Center
03:10PM 36.2797 -116.0364 277° West 437 503 47,000  Level Los Angeles Center
03:11PM 36.2939 -116.1861 277° West 438 504 47,000  Level Los Angeles Center
03:12PM 36.3086 -116.3472 277° West 440 506 47,000  Level Los Angeles Center
03:13PM 36.3219 -116.4978 276° West 441 507 47,000  Level Los Angeles Center
03:14PM 36.3356 -116.6497 276° West 444 511 47,000  Level Los Angeles Center
03:15PM 36.3492 -116.8008 276° West 444 511 47,000  Level Los Angeles Center
03:16PM 36.3647 -116.9828 276° West 444 511 47,000  Level Los Angeles Center
03:17PM 36.3769 -117.1344 276° West 444 511 47,000  Level Los Angeles Center
03:18PM 36.3903 -117.2881 276° West 448 516 47,000  Level Los Angeles Center
03:19PM 36.4033 -117.4392 276° West 445 512 47,000  Level Los Angeles Center
03:20PM 36.4147 -117.5947 275° West 451 519 47,000  Level Los Angeles Center
03:21PM 36.4269 -117.7481 276° West 451 519 47,000 -180 Level Los Angeles Center
03:22PM 36.4411 -117.9319 276° West 450 518 46,700 -660 Descending Los Angeles Center
03:23PM 36.4528 -118.0872 275° West 450 518 45,700 -1,020 Descending Los Angeles Center
03:25PM 36.4656 -118.2419 276° West 452 520 44,700 -1,020 Descending Los Angeles Center
03:26PM 36.4964 -118.4236 282° West 456 525 43,400 -1,080 Descending Los Angeles Center
03:27PM 36.5356 -118.5706 288° West 452 520 42,400 -1,020 Descending Los Angeles Center
03:28PM 36.5753 -118.7178 289° West 451 519 41,400 -1,080 Descending Los Angeles Center
03:29PM 36.5814 -118.8989 272° West 467 537 40,300 -1,080 Descending Los Angeles Center
03:30PM 36.5761 -119.0617 268° West 472 543 39,300 -1,500 Descending Los Angeles Center
03:31PM 36.5708 -119.2258 268° West 476 548 37,300 -1,800 Descending Los Angeles Center
03:32PM 36.5656 -119.3919 268° West 483 556 35,700 -1,320 Descending Los Angeles Center
03:33PM 36.5594 -119.5622 267° West 492 566 34,700 -1,560 Descending Los Angeles Center
03:34PM 36.5500 -119.8114 267° West 518 596 32,100 -1,980 Descending Oakland Center
03:35PM 36.5428 -119.9900 267° West 520 598 30,100 -1,980 Descending Oakland Center
03:36PM 36.5367 -120.1719 268° West 527 606 28,100 -2,460 Descending Oakland Center
03:37PM 36.5289 -120.3797 267° West 513 590 25,100 -2,760 Descending Oakland Center
03:38PM 36.5214 -120.5331 267° West 470 541 22,500 -2,460 Descending Oakland Center
03:39PM 36.5153 -120.6778 267° West 431 496 20,100 -2,460 Descending Oakland Center
03:40PM 36.5092 -120.8244 267° West 428 493 17,500 -2,640 Descending Oakland Center
03:41PM 36.5011 -120.9633 266° West 412 474 14,700 -2,460 Descending Oakland Center
03:42PM 36.4961 -121.0972 267° West 397 457 12,500 -2,040 Descending Oakland Center
03:44PM 36.4892 -121.2289 266° West 389 448 10,600 -1,620 Descending Oakland Center
03:45PM 36.4825 -121.3614 266° West 334 384 9,300 -1,500 Descending Oakland Center
03:46PM 36.4783 -121.4581 267° West 291 335 7,600 -1,680 Descending Oakland Center
03:47PM 36.4825 -121.5483 273° West 275 316 5,900 -1,320 Descending Oakland Center
03:48PM 36.5075 -121.6194 294° West 266 306 4,900 -1,320 Descending Oakland Center
03:49PM 36.5333 -121.7000 292° West 219 252 3,400 -1,440 Descending Northern Cal TRACON
03:50PM 36.5667 -121.7667 302° West 179 206 2,100 -1,260 Descending Northern Cal TRACON
03:51PM 36.5667 -121.8000 270° West 136 157 900 -1,200 Descending Northern Cal TRACON